createdAt,value
2018-08-24T00:00:52.916Z,2.40
2018-08-24T00:05:36.304Z,2.23
2018-08-24T00:10:20.122Z,2.47
2018-08-24T00:15:03.540Z,2.20
2018-08-24T00:19:47.609Z,2.73
2018-08-24T00:24:32.527Z,2.50
2018-08-24T00:29:16.298Z,2.80
2018-08-24T00:33:59.885Z,2.70
2018-08-24T00:38:43.291Z,3.30
2018-08-24T00:43:27.741Z,3.23
2018-08-24T00:48:11.100Z,2.80
2018-08-24T00:52:54.773Z,2.93
2018-08-24T00:57:38.248Z,3.00
2018-08-24T01:02:22.874Z,3.70
2018-08-24T01:07:13.645Z,3.00
2018-08-24T01:12:03.261Z,2.70
2018-08-24T01:16:51.923Z,2.43
2018-08-24T01:21:36.449Z,2.90
2018-08-24T01:26:22.553Z,2.73
2018-08-24T01:31:08.309Z,2.80
2018-08-24T01:35:51.805Z,2.90
2018-08-24T01:40:36.465Z,2.47
2018-08-24T01:45:19.602Z,2.50
2018-08-24T01:50:03.087Z,2.90
2018-08-24T01:54:46.508Z,2.70
2018-08-24T01:59:29.804Z,3.00
2018-08-24T02:04:13.314Z,2.60
2018-08-24T02:08:56.600Z,3.20
2018-08-24T02:13:47.425Z,3.57
2018-08-24T02:18:36.558Z,2.80
2018-08-24T02:23:19.961Z,2.67
2018-08-24T02:28:03.370Z,2.90
2018-08-24T02:32:45.883Z,3.20
2018-08-24T02:37:30.633Z,2.50
2018-08-24T02:42:14.119Z,2.90
2018-08-24T02:46:56.352Z,2.70
2018-08-24T02:51:42.956Z,3.00
2018-08-24T02:56:26.349Z,3.10
2018-08-24T03:01:10.442Z,2.87
2018-08-24T03:05:53.752Z,2.80
2018-08-24T03:10:37.304Z,2.73
2018-08-24T03:15:20.806Z,2.80
2018-08-24T03:20:05.304Z,3.50
2018-08-24T03:24:48.808Z,3.23
2018-08-24T03:29:32.265Z,3.10
2018-08-24T03:34:15.966Z,4.43
2018-08-24T03:38:59.238Z,3.50
2018-08-24T03:43:42.769Z,3.40
2018-08-24T03:48:26.050Z,2.70
2018-08-24T03:53:09.674Z,2.57
2018-08-24T03:57:53.062Z,2.73
2018-08-24T04:02:36.691Z,2.80
2018-08-24T04:07:20.165Z,2.60
2018-08-24T04:12:04.698Z,2.93
2018-08-24T04:16:53.480Z,2.83
2018-08-24T04:21:36.813Z,2.70
2018-08-24T04:26:20.209Z,2.70
2018-08-24T04:31:04.563Z,2.77
2018-08-24T04:35:47.901Z,2.73
2018-08-24T04:40:31.501Z,2.77
2018-08-24T04:45:14.894Z,2.50
2018-08-24T04:49:58.518Z,2.30
2018-08-24T04:54:44.986Z,2.20
2018-08-24T04:59:28.637Z,2.87
2018-08-24T05:04:13.483Z,2.50
2018-08-24T05:08:56.794Z,2.20
2018-08-24T05:13:40.486Z,2.33
2018-08-24T05:18:23.839Z,2.63
2018-08-24T05:23:08.193Z,2.73
2018-08-24T05:28:03.551Z,3.90
2018-08-24T05:32:49.991Z,2.43
2018-08-24T05:37:33.480Z,2.60
2018-08-24T05:42:19.498Z,2.60
2018-08-24T05:47:03.931Z,2.30
2018-08-24T05:51:47.507Z,2.80
2018-08-24T05:56:30.902Z,2.53
2018-08-24T06:01:14.304Z,2.70
2018-08-24T06:06:02.384Z,2.20
2018-08-24T06:10:49.348Z,2.40
2018-08-24T06:15:32.765Z,2.50
2018-08-24T06:20:20.905Z,3.23
2018-08-24T06:25:04.145Z,2.30
2018-08-24T06:29:47.505Z,2.27
2018-08-24T06:34:37.108Z,2.60
2018-08-24T06:39:20.713Z,2.73
2018-08-24T06:44:04.078Z,2.90
2018-08-24T06:48:48.852Z,3.10
2018-08-24T06:53:32.966Z,3.07
2018-08-24T06:58:16.443Z,2.80
2018-08-24T07:03:01.953Z,3.30
2018-08-24T07:07:45.677Z,3.40
2018-08-24T07:12:30.448Z,3.10
2018-08-24T07:17:13.989Z,2.90
2018-08-24T07:21:57.445Z,3.63
2018-08-24T07:26:40.922Z,4.53
2018-08-24T07:31:24.472Z,3.53
2018-08-24T07:36:07.911Z,4.57
2018-08-24T07:40:52.164Z,4.50
2018-08-24T07:45:35.592Z,4.10
2018-08-24T07:50:20.067Z,5.57
2018-08-24T07:55:04.528Z,4.10
2018-08-24T07:59:51.323Z,3.80
2018-08-24T08:04:34.730Z,4.27
2018-08-24T08:09:18.215Z,4.17
2018-08-24T08:14:01.714Z,4.63
2018-08-24T08:18:46.717Z,4.53
2018-08-24T08:23:30.246Z,7.50
2018-08-24T08:28:13.656Z,5.03
2018-08-24T08:32:58.062Z,4.92
2018-08-24T08:37:41.792Z,4.90
2018-08-24T08:42:29.115Z,5.03
2018-08-24T08:47:12.665Z,5.50
2018-08-24T08:51:56.497Z,8.48
2018-08-24T08:56:39.952Z,8.80
2018-08-24T09:01:24.009Z,5.92
2018-08-24T09:06:09.652Z,6.12
2018-08-24T09:10:57.686Z,5.92
2018-08-24T09:15:41.831Z,6.62
2018-08-24T09:20:31.586Z,8.73
2018-08-24T09:25:20.329Z,7.53
2018-08-24T09:35:08.445Z,5.62
2018-08-24T09:39:52.349Z,5.60
2018-08-24T09:44:35.797Z,5.15
2018-08-24T09:49:24.703Z,5.90
2018-08-24T09:54:09.067Z,5.45
2018-08-24T09:58:52.526Z,5.37
2018-08-24T10:03:41.014Z,7.50
2018-08-24T10:08:34.578Z,7.45
2018-08-24T10:13:18.004Z,5.40
2018-08-24T10:18:01.609Z,5.87
2018-08-24T10:22:46.255Z,6.42
2018-08-24T10:27:29.528Z,5.15
2018-08-24T10:32:14.094Z,5.28
2018-08-24T10:36:57.491Z,5.03
2018-08-24T10:41:44.500Z,4.67
2018-08-24T10:46:27.909Z,5.17
2018-08-24T10:51:14.453Z,4.97
2018-08-24T10:55:57.884Z,4.85
2018-08-24T11:00:42.388Z,4.30
2018-08-24T11:05:25.721Z,4.80
2018-08-24T11:10:09.191Z,4.87
2018-08-24T11:14:52.437Z,4.62
2018-08-24T11:19:38.245Z,4.33
2018-08-24T11:24:21.861Z,4.40
2018-08-24T11:29:06.848Z,4.72
2018-08-24T11:33:51.163Z,4.92
2018-08-24T11:38:34.520Z,4.70
2018-08-24T11:43:17.991Z,4.90
2018-08-24T11:48:01.363Z,4.70
2018-08-24T11:52:44.945Z,4.72
2018-08-24T11:57:28.361Z,4.60
2018-08-24T12:02:12.006Z,4.87
2018-08-24T12:06:56.098Z,4.53
2018-08-24T12:11:40.159Z,4.75
2018-08-24T12:16:25.090Z,4.97
2018-08-24T12:21:11.908Z,4.30
2018-08-24T12:25:55.723Z,4.58
2018-08-24T12:30:42.909Z,4.37
2018-08-24T12:35:26.866Z,3.83
2018-08-24T12:40:12.306Z,4.97
2018-08-24T12:44:56.789Z,4.47
2018-08-24T12:49:42.250Z,4.20
2018-08-24T12:54:26.364Z,4.37
2018-08-24T12:59:10.754Z,3.90
2018-08-24T13:03:55.174Z,4.05
2018-08-24T13:08:40.897Z,4.22
2018-08-24T13:13:24.761Z,4.15
2018-08-24T13:18:08.630Z,3.80
2018-08-24T13:22:53.198Z,4.12
2018-08-24T13:27:37.622Z,3.80
2018-08-24T13:32:22.164Z,3.80
2018-08-24T13:37:06.570Z,3.62
2018-08-24T13:41:50.108Z,3.10
2018-08-24T13:46:33.897Z,3.10
2018-08-24T13:51:19.143Z,3.20
2018-08-24T13:56:02.852Z,3.42
2018-08-24T14:00:47.202Z,3.08
2018-08-24T14:05:30.798Z,2.75
2018-08-24T14:10:14.953Z,3.08
2018-08-24T14:14:58.218Z,2.75
2018-08-24T14:19:41.870Z,3.55
2018-08-24T14:24:25.291Z,2.72
2018-08-24T14:29:09.025Z,2.85
2018-08-24T14:33:52.483Z,2.70
2018-08-24T14:38:37.287Z,3.33
2018-08-24T14:43:20.615Z,3.17
2018-08-24T14:48:04.044Z,2.77
2018-08-24T14:52:47.356Z,3.20
2018-08-24T14:57:30.655Z,3.30
2018-08-24T15:02:13.951Z,3.40
2018-08-24T15:06:57.365Z,3.60
2018-08-24T15:11:41.763Z,3.13
2018-08-24T15:16:25.708Z,3.00
2018-08-24T15:21:12.421Z,3.50
2018-08-24T15:25:55.831Z,3.03
2018-08-24T15:30:40.424Z,3.07
2018-08-24T15:35:24.007Z,2.70
2018-08-24T15:40:11.018Z,2.83
2018-08-24T15:44:54.692Z,2.60
2018-08-24T15:49:38.077Z,2.87
2018-08-24T15:54:21.388Z,2.70
2018-08-24T15:59:05.956Z,2.87
2018-08-24T16:03:49.111Z,2.23
2018-08-24T16:08:32.946Z,2.30
2018-08-24T16:13:16.268Z,2.33
2018-08-24T16:18:05.632Z,2.70
2018-08-24T16:22:49.067Z,2.83
2018-08-24T16:27:34.035Z,2.97
2018-08-24T16:32:17.645Z,2.80
2018-08-24T16:37:01.371Z,2.53
2018-08-24T16:41:44.666Z,3.63
2018-08-24T16:46:28.983Z,2.37
2018-08-24T16:51:15.458Z,3.80
2018-08-24T16:55:58.887Z,2.43
2018-08-24T17:00:46.481Z,3.30
2018-08-24T17:05:29.652Z,3.37
2018-08-24T17:10:16.504Z,2.13
2018-08-24T17:15:00.105Z,3.43
2018-08-24T17:19:44.660Z,2.27
2018-08-24T17:24:28.085Z,2.40
2018-08-24T17:29:11.671Z,2.53
2018-08-24T17:33:55.045Z,2.50
2018-08-24T17:38:38.411Z,2.67
2018-08-24T17:43:22.009Z,2.20
2018-08-24T17:48:05.808Z,2.30
2018-08-24T17:52:49.138Z,2.10
2018-08-24T17:57:32.527Z,2.13
2018-08-24T18:02:15.991Z,2.67
2018-08-24T18:06:59.216Z,2.40
2018-08-24T18:11:43.823Z,2.10
2018-08-24T18:16:27.374Z,2.27
2018-08-24T18:21:12.340Z,2.13
2018-08-24T18:25:55.711Z,2.43
2018-08-24T18:30:43.010Z,2.03
2018-08-24T18:35:26.448Z,2.57
2018-08-24T18:40:11.106Z,2.73
2018-08-24T18:44:54.570Z,2.40
2018-08-24T18:49:39.473Z,6.77
2018-08-24T18:54:23.355Z,2.80
2018-08-24T18:59:10.844Z,2.27
2018-08-24T19:03:54.207Z,2.60
2018-08-24T19:08:41.726Z,2.53
2018-08-24T19:13:25.162Z,2.10
2018-08-24T19:18:17.135Z,2.30
2018-08-24T19:23:00.522Z,2.60
2018-08-24T19:27:52.890Z,2.23
2018-08-24T19:32:36.703Z,3.00
2018-08-24T19:37:20.602Z,2.30
2018-08-24T19:42:09.243Z,2.90
2018-08-24T19:46:52.745Z,3.30
2018-08-24T19:51:37.389Z,3.00
2018-08-24T19:56:20.684Z,2.83
2018-08-24T20:01:05.906Z,2.40
2018-08-24T20:05:54.611Z,2.93
2018-08-24T20:10:39.356Z,2.40
2018-08-24T20:15:28.057Z,2.70
2018-08-24T20:20:11.838Z,2.47
2018-08-24T20:24:55.231Z,2.80
2018-08-24T20:29:39.158Z,2.30
2018-08-24T20:34:23.974Z,2.77
2018-08-24T20:39:09.696Z,3.47
2018-08-24T20:43:53.065Z,2.70
2018-08-24T20:48:36.494Z,2.60
2018-08-24T20:53:22.931Z,2.50
2018-08-24T20:58:06.390Z,3.40
2018-08-24T21:02:49.767Z,2.50
2018-08-24T21:07:34.072Z,2.60
2018-08-24T21:12:17.553Z,2.00
2018-08-24T21:17:00.898Z,2.57
2018-08-24T21:21:44.275Z,2.47
2018-08-24T21:26:27.535Z,2.20
2018-08-24T21:31:11.173Z,2.50
2018-08-24T21:35:54.645Z,2.80
2018-08-24T21:40:38.225Z,2.43
2018-08-24T21:45:21.624Z,2.83
2018-08-24T21:50:06.106Z,2.67
2018-08-24T21:54:49.435Z,2.33
2018-08-24T21:59:32.918Z,2.30
2018-08-24T22:04:16.383Z,2.90
2018-08-24T22:08:59.875Z,2.93
2018-08-24T22:13:43.275Z,2.53
2018-08-24T22:18:26.638Z,2.37
2018-08-24T22:23:10.072Z,2.37
2018-08-24T22:27:53.759Z,2.17
2018-08-24T22:32:37.118Z,2.37
2018-08-24T22:37:21.618Z,2.97
2018-08-24T22:42:04.981Z,5.03
2018-08-24T22:46:48.828Z,3.10
2018-08-24T22:51:32.270Z,2.23
2018-08-24T22:56:16.749Z,2.20
2018-08-24T23:01:00.267Z,2.53
2018-08-24T23:05:43.796Z,2.57
2018-08-24T23:10:27.384Z,2.70
2018-08-24T23:15:10.857Z,2.37
2018-08-24T23:19:54.249Z,2.60
2018-08-24T23:24:37.711Z,2.00
2018-08-24T23:29:21.212Z,2.30
2018-08-24T23:34:04.720Z,2.27
2018-08-24T23:38:48.250Z,3.07
2018-08-24T23:43:31.690Z,2.10
2018-08-24T23:48:16.256Z,2.57
2018-08-24T23:52:59.581Z,2.33
2018-08-24T23:57:44.069Z,2.03
